createdAt,value
2017-10-18T00:00:31.287Z,1010.43
2017-10-18T00:01:11.874Z,1010.44
2017-10-18T00:01:52.382Z,1010.41
2017-10-18T00:02:32.862Z,1010.46
2017-10-18T00:03:13.352Z,1010.45
2017-10-18T00:03:53.883Z,1010.43
2017-10-18T00:04:34.385Z,1010.49
2017-10-18T00:05:14.871Z,1010.48
2017-10-18T00:05:55.355Z,1010.47
2017-10-18T00:06:35.951Z,1010.42
2017-10-18T00:07:16.447Z,1010.45
2017-10-18T00:07:57.036Z,1010.47
2017-10-18T00:08:37.513Z,1010.43
2017-10-18T00:09:18.030Z,1010.47
2017-10-18T00:09:58.503Z,1010.48
2017-10-18T00:10:38.991Z,1010.43
2017-10-18T00:11:19.537Z,1010.52
2017-10-18T00:12:00.083Z,1010.52
2017-10-18T00:12:40.627Z,1010.47
2017-10-18T00:13:21.128Z,1010.52
2017-10-18T00:14:01.624Z,1010.48
2017-10-18T00:14:42.122Z,1010.5
2017-10-18T00:15:22.600Z,1010.47
2017-10-18T00:16:03.081Z,1010.46
2017-10-18T00:16:43.615Z,1010.48
2017-10-18T00:17:24.119Z,1010.44
2017-10-18T00:18:04.597Z,1010.49
2017-10-18T00:18:45.094Z,1010.48
2017-10-18T00:19:25.600Z,1010.46
2017-10-18T00:20:06.078Z,1010.45
2017-10-18T00:20:46.613Z,1010.47
2017-10-18T00:21:27.099Z,1010.5
2017-10-18T00:22:07.591Z,1010.48
2017-10-18T00:22:48.083Z,1010.47
2017-10-18T00:23:28.581Z,1010.48
2017-10-18T00:24:09.063Z,1010.48
2017-10-18T00:24:49.542Z,1010.48
2017-10-18T00:25:30.048Z,1010.5
2017-10-18T00:26:10.561Z,1010.46
2017-10-18T00:26:51.054Z,1010.45
2017-10-18T00:27:31.552Z,1010.44
2017-10-18T00:28:12.109Z,1010.38
2017-10-18T00:28:52.613Z,1010.37
2017-10-18T00:29:33.137Z,1010.32
2017-10-18T00:30:13.723Z,1010.34
2017-10-18T00:30:54.242Z,1010.33
2017-10-18T00:31:34.736Z,1010.3
2017-10-18T00:32:15.232Z,1010.35
2017-10-18T00:32:57.329Z,1010.36
2017-10-18T00:33:37.821Z,1010.37
2017-10-18T00:34:18.318Z,1010.34
2017-10-18T00:34:58.801Z,1010.32
2017-10-18T00:35:39.288Z,1010.32
2017-10-18T00:36:19.827Z,1010.33
2017-10-18T00:37:00.360Z,1010.28
2017-10-18T00:37:40.816Z,1010.31
2017-10-18T00:38:21.360Z,1010.32
2017-10-18T00:39:01.863Z,1010.3
2017-10-18T00:39:42.373Z,1010.29
2017-10-18T00:40:22.906Z,1010.31
2017-10-18T00:41:03.357Z,1010.29
2017-10-18T00:41:43.893Z,1010.29
2017-10-18T00:42:24.373Z,1010.27
2017-10-18T00:43:04.873Z,1010.27
2017-10-18T00:43:45.343Z,1010.24
2017-10-18T00:44:25.821Z,1010.22
2017-10-18T00:45:06.325Z,1010.23
2017-10-18T00:45:46.862Z,1010.23
2017-10-18T00:46:27.411Z,1010.24
2017-10-18T00:47:07.902Z,1010.23
2017-10-18T00:47:49.250Z,1010.21
2017-10-18T00:48:29.776Z,1010.21
2017-10-18T00:49:10.304Z,1010.25
2017-10-18T00:49:50.797Z,1010.23
2017-10-18T00:50:31.329Z,1010.22
2017-10-18T00:51:12.672Z,1010.23
2017-10-18T00:51:53.248Z,1010.21
2017-10-18T00:52:33.763Z,1010.21
2017-10-18T00:53:14.306Z,1010.2
2017-10-18T00:53:54.839Z,1010.19
2017-10-18T00:54:35.354Z,1010.16
2017-10-18T00:55:15.898Z,1010.17
2017-10-18T00:55:56.378Z,1010.18
2017-10-18T00:56:37.489Z,1010.12
2017-10-18T00:57:18.041Z,1010.12
2017-10-18T00:57:58.555Z,1010.1
2017-10-18T00:58:39.113Z,1010.07
2017-10-18T00:59:19.551Z,1010.06
2017-10-18T01:00:00.040Z,1010.11
2017-10-18T01:00:40.559Z,1010.06
2017-10-18T01:01:21.081Z,1010.05
2017-10-18T01:02:01.583Z,1010.06
2017-10-18T01:02:42.056Z,1010.05
2017-10-18T01:03:22.548Z,1010.04
2017-10-18T01:04:03.040Z,1010.06
2017-10-18T01:04:43.712Z,1010.07
2017-10-18T01:05:24.223Z,1010.07
2017-10-18T01:06:04.746Z,1010.05
2017-10-18T01:06:45.269Z,1010.02
2017-10-18T01:07:25.822Z,1010.04
2017-10-18T01:08:06.341Z,1010.01
2017-10-18T01:08:46.855Z,1010
2017-10-18T01:09:27.433Z,1009.95
2017-10-18T01:10:07.951Z,1009.95
2017-10-18T01:10:48.438Z,1009.98
2017-10-18T01:11:28.947Z,1009.97
2017-10-18T01:12:09.465Z,1009.96
2017-10-18T01:12:49.993Z,1009.96
2017-10-18T01:13:32.065Z,1009.98
2017-10-18T01:14:12.565Z,1009.93
2017-10-18T01:14:53.038Z,1009.94
2017-10-18T01:15:33.553Z,1009.96
2017-10-18T01:16:14.244Z,1009.9
2017-10-18T01:16:54.737Z,1009.91
2017-10-18T01:17:35.275Z,1009.95
2017-10-18T01:18:15.799Z,1009.97
2017-10-18T01:18:56.274Z,1009.92
2017-10-18T01:19:36.789Z,1009.94
2017-10-18T01:20:17.269Z,1009.9
2017-10-18T01:20:57.782Z,1009.92
2017-10-18T01:21:38.304Z,1009.91
2017-10-18T01:22:18.832Z,1009.94
2017-10-18T01:22:59.425Z,1009.93
2017-10-18T01:23:40.001Z,1009.89
2017-10-18T01:24:20.539Z,1009.86
2017-10-18T01:25:01.059Z,1009.86
2017-10-18T01:25:41.591Z,1009.86
2017-10-18T01:26:22.137Z,1009.87
2017-10-18T01:27:02.687Z,1009.9
2017-10-18T01:27:43.206Z,1009.9
2017-10-18T01:28:23.722Z,1009.89
2017-10-18T01:29:04.251Z,1009.88
2017-10-18T01:29:44.698Z,1009.86
2017-10-18T01:30:25.195Z,1009.87
2017-10-18T01:31:05.686Z,1009.88
2017-10-18T01:31:46.196Z,1009.85
2017-10-18T01:32:26.713Z,1009.85
2017-10-18T01:33:07.238Z,1009.83
2017-10-18T01:33:47.687Z,1009.79
2017-10-18T01:34:28.204Z,1009.8
2017-10-18T01:35:08.714Z,1009.76
2017-10-18T01:35:49.233Z,1009.78
2017-10-18T01:36:29.780Z,1009.77
2017-10-18T01:37:10.325Z,1009.78
2017-10-18T01:37:50.835Z,1009.8
2017-10-18T01:38:32.256Z,1009.77
2017-10-18T01:39:12.755Z,1009.75
2017-10-18T01:39:53.272Z,1009.78
2017-10-18T01:40:33.750Z,1009.74
2017-10-18T01:41:14.246Z,1009.75
2017-10-18T01:41:54.791Z,1009.72
2017-10-18T01:42:35.254Z,1009.7
2017-10-18T01:43:15.915Z,1009.69
2017-10-18T01:43:56.454Z,1009.67
2017-10-18T01:44:37.009Z,1009.66
2017-10-18T01:45:17.526Z,1009.64
2017-10-18T01:45:58.046Z,1009.65
2017-10-18T01:46:38.543Z,1009.7
2017-10-18T01:47:19.084Z,1009.61
2017-10-18T01:47:59.584Z,1009.59
2017-10-18T01:48:40.116Z,1009.6
2017-10-18T01:49:20.666Z,1009.64
2017-10-18T01:50:01.205Z,1009.6
2017-10-18T01:50:41.737Z,1009.6
2017-10-18T01:51:22.254Z,1009.61
2017-10-18T01:52:02.791Z,1009.58
2017-10-18T01:52:43.344Z,1009.6
2017-10-18T01:53:23.837Z,1009.57
2017-10-18T01:54:04.369Z,1009.59
2017-10-18T01:54:44.852Z,1009.62
2017-10-18T01:55:25.353Z,1009.59
2017-10-18T01:56:05.855Z,1009.59
2017-10-18T01:56:46.353Z,1009.57
2017-10-18T01:57:26.870Z,1009.56
2017-10-18T01:58:07.388Z,1009.6
2017-10-18T01:58:47.934Z,1009.62
2017-10-18T01:59:28.623Z,1009.61
2017-10-18T02:00:09.135Z,1009.58
2017-10-18T02:00:49.754Z,1009.59
2017-10-18T02:01:30.200Z,1009.57
2017-10-18T02:02:10.689Z,1009.56
2017-10-18T02:02:51.226Z,1009.55
2017-10-18T02:03:31.717Z,1009.51
2017-10-18T02:04:12.245Z,1009.52
2017-10-18T02:04:52.772Z,1009.55
2017-10-18T02:05:33.372Z,1009.53
2017-10-18T02:06:13.956Z,1009.53
2017-10-18T02:06:54.428Z,1009.53
2017-10-18T02:07:35.515Z,1009.48
2017-10-18T02:08:15.975Z,1009.44
2017-10-18T02:08:56.463Z,1009.44
2017-10-18T02:09:36.940Z,1009.45
2017-10-18T02:10:17.432Z,1009.43
2017-10-18T02:10:57.971Z,1009.46
2017-10-18T02:11:38.460Z,1009.45
2017-10-18T02:12:18.979Z,1009.44
2017-10-18T02:12:59.493Z,1009.45
2017-10-18T02:13:39.974Z,1009.44
2017-10-18T02:14:20.481Z,1009.42
2017-10-18T02:15:00.971Z,1009.42
2017-10-18T02:15:41.465Z,1009.41
2017-10-18T02:16:22.011Z,1009.43
2017-10-18T02:17:02.554Z,1009.4
2017-10-18T02:17:43.112Z,1009.43
2017-10-18T02:18:23.619Z,1009.41
2017-10-18T02:19:04.284Z,1009.43
2017-10-18T02:19:44.771Z,1009.4
2017-10-18T02:20:25.245Z,1009.4
2017-10-18T02:21:05.760Z,1009.41
2017-10-18T02:21:46.253Z,1009.44
2017-10-18T02:22:26.762Z,1009.42
2017-10-18T02:23:07.254Z,1009.43
2017-10-18T02:23:47.837Z,1009.44
2017-10-18T02:24:28.314Z,1009.38
2017-10-18T02:25:08.825Z,1009.42
2017-10-18T02:25:49.352Z,1009.39
2017-10-18T02:26:30.696Z,1009.35
2017-10-18T02:27:11.185Z,1009.38
2017-10-18T02:27:51.723Z,1009.35
2017-10-18T02:28:32.239Z,1009.34
2017-10-18T02:29:12.728Z,1009.36
2017-10-18T02:29:53.241Z,1009.31
2017-10-18T02:30:33.755Z,1009.34
2017-10-18T02:31:15.187Z,1009.33
2017-10-18T02:31:55.695Z,1009.29
2017-10-18T02:32:36.209Z,1009.31
2017-10-18T02:33:16.746Z,1009.32
2017-10-18T02:33:57.297Z,1009.29
2017-10-18T02:34:37.849Z,1009.3
2017-10-18T02:35:18.397Z,1009.32
2017-10-18T02:35:58.949Z,1009.28
2017-10-18T02:36:39.523Z,1009.24
2017-10-18T02:37:20.061Z,1009.25
2017-10-18T02:38:00.567Z,1009.26
2017-10-18T02:38:41.095Z,1009.29
2017-10-18T02:39:21.636Z,1009.23
2017-10-18T02:40:02.182Z,1009.22
2017-10-18T02:40:42.703Z,1009.21
2017-10-18T02:41:23.220Z,1009.21
2017-10-18T02:42:03.769Z,1009.2
2017-10-18T02:42:44.311Z,1009.18
2017-10-18T02:43:24.843Z,1009.15
2017-10-18T02:44:05.353Z,1009.19
2017-10-18T02:44:45.854Z,1009.15
2017-10-18T02:45:26.346Z,1009.17
2017-10-18T02:46:06.889Z,1009.16
2017-10-18T02:46:47.346Z,1009.11
2017-10-18T02:47:27.849Z,1009.18
2017-10-18T02:48:08.330Z,1009.15
2017-10-18T02:48:48.812Z,1009.19
2017-10-18T02:49:29.313Z,1009.17
2017-10-18T02:50:09.929Z,1009.13
2017-10-18T02:50:50.321Z,1009.14
2017-10-18T02:51:30.827Z,1009.16
2017-10-18T02:52:11.323Z,1009.16
2017-10-18T02:52:51.835Z,1009.14
2017-10-18T02:53:32.349Z,1009.15
2017-10-18T02:54:12.833Z,1009.13
2017-10-18T02:54:53.320Z,1009.14
2017-10-18T02:55:33.824Z,1009.13
2017-10-18T02:56:14.425Z,1009.15
2017-10-18T02:56:55.006Z,1009.14
2017-10-18T02:57:35.513Z,1009.14
2017-10-18T02:58:16.054Z,1009.12
2017-10-18T02:58:56.616Z,1009.09
2017-10-18T02:59:37.156Z,1009.09
2017-10-18T03:00:17.693Z,1009.09
2017-10-18T03:00:58.227Z,1009.1
2017-10-18T03:01:38.762Z,1009.09
2017-10-18T03:02:19.287Z,1009.11
2017-10-18T03:02:59.814Z,1009.1
2017-10-18T03:03:40.365Z,1009.14
2017-10-18T03:04:20.884Z,1009.18
2017-10-18T03:05:01.419Z,1009.18
2017-10-18T03:05:41.964Z,1009.16
2017-10-18T03:06:22.510Z,1009.17
2017-10-18T03:07:03.033Z,1009.14
2017-10-18T03:07:43.580Z,1009.14
2017-10-18T03:08:24.135Z,1009.14
2017-10-18T03:09:04.632Z,1009.13
2017-10-18T03:09:45.123Z,1009.13
2017-10-18T03:10:25.710Z,1009.1
2017-10-18T03:11:06.192Z,1009.11
2017-10-18T03:11:46.670Z,1009.16
2017-10-18T03:12:27.196Z,1009.12
2017-10-18T03:13:07.735Z,1009.13
2017-10-18T03:13:48.264Z,1009.1
2017-10-18T03:14:28.809Z,1009.12
2017-10-18T03:15:09.257Z,1009.09
2017-10-18T03:15:49.757Z,1009.11
2017-10-18T03:16:30.229Z,1009.1
2017-10-18T03:17:10.768Z,1009.14
2017-10-18T03:17:51.290Z,1009.13
2017-10-18T03:18:31.786Z,1009.14
2017-10-18T03:19:12.269Z,1009.11
2017-10-18T03:19:52.823Z,1009.09
2017-10-18T03:20:33.368Z,1009.09
2017-10-18T03:21:13.927Z,1009.11
2017-10-18T03:21:54.470Z,1009.13
2017-10-18T03:22:35.022Z,1009.15
2017-10-18T03:23:15.532Z,1009.13
2017-10-18T03:23:56.060Z,1009.14
2017-10-18T03:24:36.599Z,1009.12
2017-10-18T03:25:17.150Z,1009.11
2017-10-18T03:25:57.700Z,1009.13
2017-10-18T03:26:38.170Z,1009.14
2017-10-18T03:27:18.663Z,1009.14
2017-10-18T03:27:59.145Z,1009.09
2017-10-18T03:28:39.647Z,1009.07
2017-10-18T03:29:20.134Z,1009.07
2017-10-18T03:30:00.603Z,1009.08
2017-10-18T03:30:41.134Z,1009.08
2017-10-18T03:31:21.685Z,1009.1
2017-10-18T03:32:02.239Z,1009.1
2017-10-18T03:32:42.735Z,1009.12
2017-10-18T03:33:23.285Z,1009.07
2017-10-18T03:34:03.831Z,1009.02
2017-10-18T03:34:44.355Z,1009.04
2017-10-18T03:35:24.879Z,1009
2017-10-18T03:36:05.369Z,1009.02
2017-10-18T03:36:45.928Z,1009.02
2017-10-18T03:37:26.438Z,1009.05
2017-10-18T03:38:06.941Z,1009
2017-10-18T03:38:47.478Z,1008.98
2017-10-18T03:39:28.026Z,1008.95
2017-10-18T03:40:08.563Z,1008.98
2017-10-18T03:40:49.118Z,1008.98
2017-10-18T03:41:29.656Z,1008.99
2017-10-18T03:42:10.197Z,1008.99
2017-10-18T03:42:50.711Z,1008.98
2017-10-18T03:43:31.235Z,1008.97
2017-10-18T03:44:11.712Z,1008.99
2017-10-18T03:44:52.208Z,1008.99
2017-10-18T03:45:32.796Z,1009.01
2017-10-18T03:46:13.803Z,1008.97
2017-10-18T03:46:54.402Z,1008.93
2017-10-18T03:47:34.898Z,1008.96
2017-10-18T03:48:15.517Z,1008.93
2017-10-18T03:48:55.992Z,1008.92
2017-10-18T03:49:36.483Z,1008.92
2017-10-18T03:50:16.998Z,1008.88
2017-10-18T03:50:57.501Z,1008.92
2017-10-18T03:51:37.985Z,1008.88
2017-10-18T03:52:18.623Z,1008.85
2017-10-18T03:52:59.221Z,1008.87
2017-10-18T03:53:39.803Z,1008.88
2017-10-18T03:54:20.252Z,1008.83
2017-10-18T03:55:00.735Z,1008.8
2017-10-18T03:55:41.242Z,1008.83
2017-10-18T03:56:21.815Z,1008.83
2017-10-18T03:57:02.314Z,1008.78
2017-10-18T03:57:42.835Z,1008.84
2017-10-18T03:58:23.327Z,1008.8
2017-10-18T03:59:03.894Z,1008.82
2017-10-18T03:59:44.359Z,1008.78
2017-10-18T04:00:24.849Z,1008.79
2017-10-18T04:01:05.362Z,1008.8
2017-10-18T04:01:45.843Z,1008.76
2017-10-18T04:02:26.349Z,1008.73
2017-10-18T04:03:06.848Z,1008.74
2017-10-18T04:03:47.385Z,1008.76
2017-10-18T04:04:27.880Z,1008.76
2017-10-18T04:05:09.316Z,1008.73
2017-10-18T04:05:49.873Z,1008.74
2017-10-18T04:06:30.380Z,1008.75
2017-10-18T04:07:10.883Z,1008.77
2017-10-18T04:07:51.404Z,1008.73
2017-10-18T04:08:31.894Z,1008.69
2017-10-18T04:09:13.310Z,1008.66
2017-10-18T04:09:53.822Z,1008.72
2017-10-18T04:10:34.355Z,1008.71
2017-10-18T04:11:14.845Z,1008.66
2017-10-18T04:11:55.321Z,1008.69
2017-10-18T04:12:35.844Z,1008.68
2017-10-18T04:13:16.337Z,1008.67
2017-10-18T04:13:56.844Z,1008.65
2017-10-18T04:14:37.408Z,1008.63
2017-10-18T04:15:17.912Z,1008.65
2017-10-18T04:15:58.553Z,1008.63
2017-10-18T04:16:39.057Z,1008.62
2017-10-18T04:17:19.574Z,1008.63
2017-10-18T04:18:02.535Z,1008.57
2017-10-18T04:18:43.048Z,1008.64
2017-10-18T04:19:23.581Z,1008.6
2017-10-18T04:20:04.126Z,1008.61
2017-10-18T04:20:45.419Z,1008.63
2017-10-18T04:21:26.949Z,1008.6
2017-10-18T04:22:07.537Z,1008.61
2017-10-18T04:22:48.144Z,1008.59
2017-10-18T04:23:28.659Z,1008.58
2017-10-18T04:24:09.193Z,1008.59
2017-10-18T04:24:49.729Z,1008.56
2017-10-18T04:25:30.268Z,1008.6
2017-10-18T04:26:10.801Z,1008.57
2017-10-18T04:26:51.351Z,1008.56
2017-10-18T04:27:31.825Z,1008.57
2017-10-18T04:28:12.346Z,1008.55
2017-10-18T04:28:52.890Z,1008.56
2017-10-18T04:29:33.453Z,1008.52
2017-10-18T04:30:14.047Z,1008.5
2017-10-18T04:30:54.470Z,1008.48
2017-10-18T04:31:35.016Z,1008.47
2017-10-18T04:32:15.543Z,1008.48
2017-10-18T04:32:56.065Z,1008.52
2017-10-18T04:33:36.612Z,1008.47
2017-10-18T04:34:17.200Z,1008.49
2017-10-18T04:34:57.761Z,1008.49
2017-10-18T04:35:38.302Z,1008.51
2017-10-18T04:36:18.831Z,1008.48
2017-10-18T04:36:59.351Z,1008.45
2017-10-18T04:37:39.888Z,1008.48
2017-10-18T04:38:20.432Z,1008.48
2017-10-18T04:39:00.957Z,1008.43
2017-10-18T04:39:41.482Z,1008.51
2017-10-18T04:40:22.003Z,1008.46
2017-10-18T04:41:02.540Z,1008.49
2017-10-18T04:41:43.101Z,1008.47
2017-10-18T04:42:23.659Z,1008.46
2017-10-18T04:43:04.168Z,1008.51
2017-10-18T04:43:44.732Z,1008.42
2017-10-18T04:44:25.258Z,1008.45
2017-10-18T04:45:05.836Z,1008.44
2017-10-18T04:45:46.407Z,1008.42
2017-10-18T04:46:27.013Z,1008.42
2017-10-18T04:47:07.580Z,1008.47
2017-10-18T04:47:48.121Z,1008.44
2017-10-18T04:48:28.657Z,1008.44
2017-10-18T04:49:09.220Z,1008.44
2017-10-18T04:49:49.749Z,1008.39
2017-10-18T04:50:30.289Z,1008.39
2017-10-18T04:51:10.831Z,1008.38
2017-10-18T04:51:51.345Z,1008.39
2017-10-18T04:52:31.884Z,1008.38
2017-10-18T04:53:14.331Z,1008.34
2017-10-18T04:53:54.837Z,1008.37
2017-10-18T04:54:35.368Z,1008.34
2017-10-18T04:55:15.883Z,1008.35
2017-10-18T04:55:56.385Z,1008.33
2017-10-18T04:56:36.909Z,1008.32
2017-10-18T04:57:17.383Z,1008.33
2017-10-18T04:57:57.877Z,1008.36
2017-10-18T04:58:38.388Z,1008.33
2017-10-18T04:59:18.895Z,1008.34
2017-10-18T04:59:59.385Z,1008.39
2017-10-18T05:00:39.906Z,1008.34
2017-10-18T05:01:20.420Z,1008.35
2017-10-18T05:02:00.937Z,1008.38
2017-10-18T05:02:41.498Z,1008.39
2017-10-18T05:03:22.082Z,1008.42
2017-10-18T05:04:02.596Z,1008.42
2017-10-18T05:04:43.137Z,1008.45
2017-10-18T05:05:23.668Z,1008.45
2017-10-18T05:06:04.199Z,1008.42
2017-10-18T05:06:44.760Z,1008.42
2017-10-18T05:07:25.280Z,1008.43
2017-10-18T05:08:05.791Z,1008.46
2017-10-18T05:08:46.297Z,1008.42
2017-10-18T05:09:26.816Z,1008.45
2017-10-18T05:10:07.301Z,1008.4
2017-10-18T05:10:48.675Z,1008.4
2017-10-18T05:11:29.133Z,1008.37
2017-10-18T05:12:09.623Z,1008.38
2017-10-18T05:12:50.126Z,1008.38
2017-10-18T05:13:30.635Z,1008.35
2017-10-18T05:14:11.202Z,1008.34
2017-10-18T05:14:51.651Z,1008.34
2017-10-18T05:15:32.168Z,1008.33
2017-10-18T05:16:12.705Z,1008.4
2017-10-18T05:16:53.134Z,1008.38
2017-10-18T05:17:33.662Z,1008.36
2017-10-18T05:18:14.212Z,1008.39
2017-10-18T05:18:54.731Z,1008.38
2017-10-18T05:19:35.265Z,1008.42
2017-10-18T05:20:15.787Z,1008.39
2017-10-18T05:20:56.323Z,1008.38
2017-10-18T05:21:36.830Z,1008.39
2017-10-18T05:22:17.347Z,1008.34
2017-10-18T05:22:57.860Z,1008.4
2017-10-18T05:23:38.362Z,1008.4
2017-10-18T05:24:18.896Z,1008.36
2017-10-18T05:24:59.431Z,1008.37
2017-10-18T05:25:39.970Z,1008.37
2017-10-18T05:26:20.504Z,1008.4
2017-10-18T05:27:01.043Z,1008.39
2017-10-18T05:27:41.585Z,1008.39
2017-10-18T05:28:22.102Z,1008.37
2017-10-18T05:29:02.637Z,1008.38
2017-10-18T05:29:43.157Z,1008.33
2017-10-18T05:30:23.711Z,1008.35
2017-10-18T05:31:04.207Z,1008.35
2017-10-18T05:31:44.757Z,1008.36
2017-10-18T05:32:25.187Z,1008.36
2017-10-18T05:33:05.717Z,1008.33
2017-10-18T05:33:46.214Z,1008.33
2017-10-18T05:34:26.701Z,1008.37
2017-10-18T05:35:07.186Z,1008.35
2017-10-18T05:35:47.710Z,1008.37
2017-10-18T05:36:28.246Z,1008.34
2017-10-18T05:37:08.788Z,1008.33
2017-10-18T05:37:49.352Z,1008.33
2017-10-18T05:38:29.899Z,1008.29
2017-10-18T05:39:10.356Z,1008.29
2017-10-18T05:39:50.950Z,1008.31
2017-10-18T05:40:31.419Z,1008.27
2017-10-18T05:41:11.917Z,1008.26
2017-10-18T05:41:52.408Z,1008.27
2017-10-18T05:42:32.924Z,1008.28
2017-10-18T05:43:13.405Z,1008.26
2017-10-18T05:43:53.899Z,1008.27
2017-10-18T05:44:34.442Z,1008.23
2017-10-18T05:45:14.969Z,1008.24
2017-10-18T05:45:55.649Z,1008.21
2017-10-18T05:46:36.693Z,1008.26
2017-10-18T05:47:17.323Z,1008.29
2017-10-18T05:47:57.864Z,1008.32
2017-10-18T05:48:38.380Z,1008.26
2017-10-18T05:49:18.932Z,1008.32
2017-10-18T05:49:59.448Z,1008.29
2017-10-18T05:50:40.035Z,1008.32
2017-10-18T05:51:20.562Z,1008.32
2017-10-18T05:52:01.100Z,1008.3
2017-10-18T05:52:41.659Z,1008.31
2017-10-18T05:53:22.237Z,1008.34
2017-10-18T05:54:02.773Z,1008.35
2017-10-18T05:54:43.302Z,1008.36
2017-10-18T05:55:23.925Z,1008.32
2017-10-18T05:56:04.452Z,1008.32
2017-10-18T05:56:44.995Z,1008.37
2017-10-18T05:57:26.061Z,1008.34
2017-10-18T05:58:06.564Z,1008.34
2017-10-18T05:58:47.393Z,1008.32
2017-10-18T05:59:27.892Z,1008.31
2017-10-18T06:00:08.420Z,1008.29
2017-10-18T06:00:49.037Z,1008.28
2017-10-18T06:01:29.517Z,1008.31
2017-10-18T06:02:10.048Z,1008.32
2017-10-18T06:02:50.727Z,1008.36
2017-10-18T06:03:31.286Z,1008.35
2017-10-18T06:04:11.872Z,1008.33
2017-10-18T06:04:52.529Z,1008.4
2017-10-18T06:05:33.156Z,1008.37
2017-10-18T06:06:13.838Z,1008.4
2017-10-18T06:06:54.372Z,1008.38
2017-10-18T06:07:34.909Z,1008.36
2017-10-18T06:08:15.448Z,1008.41
2017-10-18T06:08:55.981Z,1008.4
2017-10-18T06:09:36.515Z,1008.43
2017-10-18T06:10:17.058Z,1008.44
2017-10-18T06:10:57.586Z,1008.46
2017-10-18T06:11:38.129Z,1008.43
2017-10-18T06:12:18.663Z,1008.42
2017-10-18T06:12:59.235Z,1008.44
2017-10-18T06:13:39.768Z,1008.41
2017-10-18T06:14:20.303Z,1008.42
2017-10-18T06:15:00.870Z,1008.46
2017-10-18T06:15:41.407Z,1008.47
2017-10-18T06:16:21.943Z,1008.45
2017-10-18T06:17:02.403Z,1008.45
2017-10-18T06:17:42.936Z,1008.46
2017-10-18T06:18:24.440Z,1008.47
2017-10-18T06:19:08.472Z,1008.45
2017-10-18T06:19:50.631Z,1008.43
2017-10-18T06:20:31.189Z,1008.44
2017-10-18T06:21:11.724Z,1008.42
2017-10-18T06:21:52.228Z,1008.45
2017-10-18T06:22:32.757Z,1008.42
2017-10-18T06:23:13.284Z,1008.47
2017-10-18T06:23:53.790Z,1008.46
2017-10-18T06:24:34.389Z,1008.49
2017-10-18T06:25:14.870Z,1008.52
2017-10-18T06:25:55.361Z,1008.47
2017-10-18T06:26:35.870Z,1008.47
2017-10-18T06:27:16.373Z,1008.47
2017-10-18T06:27:56.922Z,1008.45
2017-10-18T06:28:37.446Z,1008.46
2017-10-18T06:29:17.981Z,1008.46
2017-10-18T06:29:58.517Z,1008.48
2017-10-18T06:30:39.064Z,1008.53
2017-10-18T06:31:19.617Z,1008.51
2017-10-18T06:32:00.148Z,1008.53
2017-10-18T06:32:40.729Z,1008.52
2017-10-18T06:33:21.250Z,1008.54
2017-10-18T06:34:01.784Z,1008.53
2017-10-18T06:34:42.321Z,1008.51
2017-10-18T06:35:22.845Z,1008.52
2017-10-18T06:36:03.373Z,1008.53
2017-10-18T06:36:43.911Z,1008.56
2017-10-18T06:37:24.528Z,1008.54
2017-10-18T06:38:05.063Z,1008.58
2017-10-18T06:38:45.685Z,1008.56
2017-10-18T06:39:26.211Z,1008.58
2017-10-18T06:40:06.735Z,1008.6
2017-10-18T06:40:47.272Z,1008.61
2017-10-18T06:41:27.804Z,1008.64
2017-10-18T06:42:08.334Z,1008.6
2017-10-18T06:42:48.866Z,1008.63
2017-10-18T06:43:29.401Z,1008.67
2017-10-18T06:44:09.951Z,1008.63
2017-10-18T06:44:50.457Z,1008.66
2017-10-18T06:45:30.990Z,1008.62
2017-10-18T06:46:11.524Z,1008.65
2017-10-18T06:46:52.074Z,1008.66
2017-10-18T06:47:32.614Z,1008.62
2017-10-18T06:48:13.192Z,1008.66
2017-10-18T06:48:53.755Z,1008.61
2017-10-18T06:49:34.287Z,1008.65
2017-10-18T06:50:14.821Z,1008.63
2017-10-18T06:50:55.353Z,1008.7
2017-10-18T06:51:35.895Z,1008.66
2017-10-18T06:52:16.427Z,1008.65
2017-10-18T06:52:56.955Z,1008.67
2017-10-18T06:53:37.491Z,1008.67
2017-10-18T06:54:18.042Z,1008.66
2017-10-18T06:54:58.578Z,1008.69
2017-10-18T06:55:39.113Z,1008.66
2017-10-18T06:56:19.648Z,1008.68
2017-10-18T06:57:00.190Z,1008.68
2017-10-18T06:57:40.725Z,1008.7
2017-10-18T06:58:21.254Z,1008.69
2017-10-18T06:59:01.793Z,1008.71
2017-10-18T06:59:42.324Z,1008.7
2017-10-18T07:00:22.859Z,1008.7
2017-10-18T07:01:03.394Z,1008.69
2017-10-18T07:01:43.917Z,1008.71
2017-10-18T07:02:24.448Z,1008.69
2017-10-18T07:03:04.975Z,1008.72
2017-10-18T07:03:45.515Z,1008.7
2017-10-18T07:04:26.071Z,1008.72
2017-10-18T07:05:06.665Z,1008.7
2017-10-18T07:05:47.273Z,1008.73
2017-10-18T07:06:27.812Z,1008.72
2017-10-18T07:07:08.345Z,1008.72
2017-10-18T07:07:48.883Z,1008.73
2017-10-18T07:08:29.431Z,1008.73
2017-10-18T07:09:09.975Z,1008.77
2017-10-18T07:09:50.508Z,1008.72
2017-10-18T07:10:31.035Z,1008.73
2017-10-18T07:11:11.575Z,1008.74
2017-10-18T07:11:52.106Z,1008.75
2017-10-18T07:12:32.636Z,1008.78
2017-10-18T07:13:13.177Z,1008.78
2017-10-18T07:13:53.714Z,1008.78
2017-10-18T07:14:34.237Z,1008.77
2017-10-18T07:15:14.775Z,1008.76
2017-10-18T07:15:55.290Z,1008.77
2017-10-18T07:16:35.825Z,1008.75
2017-10-18T07:17:16.362Z,1008.77
2017-10-18T07:17:56.900Z,1008.74
2017-10-18T07:18:37.421Z,1008.7
2017-10-18T07:19:17.949Z,1008.73
2017-10-18T07:19:58.473Z,1008.73
2017-10-18T07:20:39.038Z,1008.73
2017-10-18T07:21:19.582Z,1008.75
2017-10-18T07:22:00.119Z,1008.74
2017-10-18T07:22:40.649Z,1008.73
2017-10-18T07:23:21.176Z,1008.77
2017-10-18T07:24:01.752Z,1008.75
2017-10-18T07:24:42.273Z,1008.68
2017-10-18T07:25:22.793Z,1008.65
2017-10-18T07:26:03.336Z,1008.71
2017-10-18T07:26:43.861Z,1008.66
2017-10-18T07:27:24.424Z,1008.64
2017-10-18T07:28:04.951Z,1008.63
2017-10-18T07:28:45.486Z,1008.62
2017-10-18T07:29:26.043Z,1008.66
2017-10-18T07:30:06.573Z,1008.62
2017-10-18T07:30:47.099Z,1008.59
2017-10-18T07:31:27.639Z,1008.61
2017-10-18T07:32:08.177Z,1008.6
2017-10-18T07:32:48.709Z,1008.65
2017-10-18T07:33:29.244Z,1008.63
2017-10-18T07:34:09.798Z,1008.64
2017-10-18T07:34:50.305Z,1008.64
2017-10-18T07:35:30.826Z,1008.6
2017-10-18T07:36:11.391Z,1008.62
2017-10-18T07:36:51.933Z,1008.63
2017-10-18T07:37:32.443Z,1008.63
2017-10-18T07:38:12.964Z,1008.64
2017-10-18T07:38:53.488Z,1008.64
2017-10-18T07:39:34.024Z,1008.64
2017-10-18T07:40:14.562Z,1008.69
2017-10-18T07:40:55.116Z,1008.66
2017-10-18T07:41:35.636Z,1008.65
2017-10-18T07:42:16.158Z,1008.63
2017-10-18T07:42:56.689Z,1008.65
2017-10-18T07:43:37.245Z,1008.59
2017-10-18T07:44:17.737Z,1008.63
2017-10-18T07:44:58.277Z,1008.69
2017-10-18T07:45:38.821Z,1008.67
2017-10-18T07:46:19.357Z,1008.61
2017-10-18T07:46:59.891Z,1008.63
2017-10-18T07:47:40.429Z,1008.59
2017-10-18T07:48:20.964Z,1008.64
2017-10-18T07:49:01.488Z,1008.65
2017-10-18T07:49:42.015Z,1008.63
2017-10-18T07:50:22.553Z,1008.67
2017-10-18T07:51:03.088Z,1008.65
2017-10-18T07:51:43.626Z,1008.66
2017-10-18T07:52:24.165Z,1008.64
2017-10-18T07:53:04.694Z,1008.69
2017-10-18T07:53:45.241Z,1008.71
2017-10-18T07:54:25.779Z,1008.67
2017-10-18T07:55:06.414Z,1008.7
2017-10-18T07:55:46.959Z,1008.73
2017-10-18T07:56:27.495Z,1008.68
2017-10-18T07:57:08.037Z,1008.75
2017-10-18T07:57:48.568Z,1008.71
2017-10-18T07:58:29.116Z,1008.72
2017-10-18T07:59:09.714Z,1008.71
2017-10-18T07:59:50.239Z,1008.71
2017-10-18T08:00:30.781Z,1008.71
2017-10-18T08:01:11.307Z,1008.68
2017-10-18T08:01:51.836Z,1008.68
2017-10-18T08:02:32.359Z,1008.66
2017-10-18T08:03:12.895Z,1008.64
2017-10-18T08:03:53.425Z,1008.65
2017-10-18T08:04:33.960Z,1008.68
2017-10-18T08:05:14.487Z,1008.7
2017-10-18T08:05:55.019Z,1008.64
2017-10-18T08:06:35.554Z,1008.69
2017-10-18T08:07:16.091Z,1008.68
2017-10-18T08:07:56.633Z,1008.7
2017-10-18T08:08:37.179Z,1008.7
2017-10-18T08:09:17.716Z,1008.67
2017-10-18T08:09:58.275Z,1008.64
2017-10-18T08:10:38.815Z,1008.69
2017-10-18T08:11:19.362Z,1008.7
2017-10-18T08:11:59.881Z,1008.64
2017-10-18T08:12:40.418Z,1008.67